Time;durP1;ratioP1;P1;durP2;ratioP2;P2;SDS_P1;SDS_P2;PMS_P1;PMS_P2;Temp;Humidity;BMP_temperature;BMP_pressure;BME280_temperature;BME280_humidity;BME280_pressure;Samples;Min_cycle;Max_cycle;Signal;HPM_P1;HPM_P2
2022/05/23 00:01:23;;;;;;;;;;;21.80;53.50;;;;;;465977;255;1620;-39
2022/05/23 00:03:24;;;;;;;;;;;21.70;53.40;;;;;;467767;254;2290;-39
2022/05/23 00:05:25;;;;;;;;;;;21.70;53.50;;;;;;466203;255;1852;-40
2022/05/23 00:07:26;;;;;;;;;;;21.70;53.60;;;;;;467703;254;1298;-39
2022/05/23 00:09:29;;;;;;;;;;;21.70;53.60;;;;;;466070;255;1183;-39
2022/05/23 00:11:29;;;;;;;;;;;21.70;53.50;;;;;;467546;255;2294;-40
2022/05/23 00:13:30;;;;;;;;;;;21.70;53.60;;;;;;466105;255;1560;-39
2022/05/23 00:15:32;;;;;;;;;;;21.80;53.60;;;;;;468026;254;1221;-40
2022/05/23 00:17:33;;;;;;;;;;;21.70;53.60;;;;;;466293;255;1418;-39
2022/05/23 00:19:34;;;;;;;;;;;21.70;53.60;;;;;;468166;254;1213;-40
2022/05/23 00:21:35;;;;;;;;;;;21.70;53.60;;;;;;465914;255;1228;-40
2022/05/23 00:23:37;;;;;;;;;;;21.80;53.60;;;;;;468082;254;2133;-40
2022/05/23 00:25:38;;;;;;;;;;;21.80;53.50;;;;;;466132;255;1340;-40
2022/05/23 00:27:40;;;;;;;;;;;21.80;53.50;;;;;;467754;254;1239;-40
2022/05/23 00:29:41;;;;;;;;;;;21.80;53.40;;;;;;465870;255;1474;-40
2022/05/23 00:35:17;;;;;;;;;;;21.80;53.40;;;;;;468074;254;1197;-40
2022/05/23 00:36:20;;;;;;;;;;;21.80;53.50;;;;;;468064;254;1286;-39
2022/05/23 00:38:22;;;;;;;;;;;21.80;53.40;;;;;;466211;255;1124;-39
2022/05/23 00:40:23;;;;;;;;;;;21.80;53.50;;;;;;467759;254;1105;-39
2022/05/23 00:44:43;;;;;;;;;;;21.80;53.50;;;;;;467709;254;2129;-39
2022/05/23 00:46:44;;;;;;;;;;;21.80;53.50;;;;;;466080;253;1293;-39
2022/05/23 00:48:46;;;;;;;;;;;21.70;53.50;;;;;;467759;255;1087;-39
2022/05/23 00:50:47;;;;;;;;;;;21.80;53.60;;;;;;466213;255;1291;-40
2022/05/23 00:52:48;;;;;;;;;;;21.80;53.50;;;;;;467700;255;1212;-40
2022/05/23 00:54:50;;;;;;;;;;;21.80;53.50;;;;;;466138;255;1307;-40
2022/05/23 00:56:51;;;;;;;;;;;21.80;53.60;;;;;;467659;255;1242;-39
2022/05/23 00:58:52;;;;;;;;;;;21.80;53.50;;;;;;465861;255;1257;-40
2022/05/23 01:00:54;;;;;;;;;;;21.80;53.50;;;;;;467843;254;1256;-39
2022/05/23 01:02:55;;;;;;;;;;;21.80;53.50;;;;;;465856;255;1472;-40
2022/05/23 01:04:56;;;;;;;;;;;21.80;53.50;;;;;;468082;254;2125;-39
2022/05/23 01:06:58;;;;;;;;;;;21.80;53.40;;;;;;465835;255;1234;-40
2022/05/23 01:08:59;;;;;;;;;;;21.80;53.50;;;;;;467708;255;1220;-39
2022/05/23 01:11:00;;;;;;;;;;;21.80;53.50;;;;;;465915;255;1266;-40
2022/05/23 01:13:02;;;;;;;;;;;21.80;53.50;;;;;;467884;254;1279;-39
2022/05/23 01:15:05;;;;;;;;;;;21.80;53.50;;;;;;465891;255;1332;-40
2022/05/23 01:17:04;;;;;;;;;;;21.80;53.50;;;;;;467520;255;2426;-39
2022/05/23 01:19:06;;;;;;;;;;;21.80;53.50;;;;;;466234;255;1219;-39
2022/05/23 01:21:07;;;;;;;;;;;21.80;53.50;;;;;;467667;255;1564;-39
2022/05/23 01:23:08;;;;;;;;;;;21.80;53.50;;;;;;465904;255;1232;-39
2022/05/23 01:25:10;;;;;;;;;;;21.80;53.60;;;;;;467708;255;2137;-39
2022/05/23 01:27:11;;;;;;;;;;;21.70;53.50;;;;;;465737;255;1384;-39
2022/05/23 01:29:12;;;;;;;;;;;21.80;53.50;;;;;;468076;254;1158;-40
2022/05/23 01:31:15;;;;;;;;;;;21.80;53.50;;;;;;466223;255;1260;-39
2022/05/23 01:33:15;;;;;;;;;;;21.80;53.60;;;;;;467608;255;2261;-39
2022/05/23 01:35:16;;;;;;;;;;;21.80;53.60;;;;;;465843;255;1275;-39
2022/05/23 01:37:18;;;;;;;;;;;21.80;53.60;;;;;;467677;255;1217;-39
2022/05/23 01:39:19;;;;;;;;;;;21.80;53.50;;;;;;465858;255;1541;-40
2022/05/23 01:41:20;;;;;;;;;;;21.80;53.50;;;;;;467626;254;1211;-40
2022/05/23 01:43:22;;;;;;;;;;;21.80;53.50;;;;;;466020;255;1218;-40
2022/05/23 01:45:23;;;;;;;;;;;21.80;53.50;;;;;;468093;254;2130;-39
2022/05/23 01:47:24;;;;;;;;;;;21.80;53.50;;;;;;465956;255;1626;-40
2022/05/23 01:49:26;;;;;;;;;;;21.80;53.60;;;;;;467702;255;1227;-40
2022/05/23 01:51:28;;;;;;;;;;;21.80;53.50;;;;;;465963;255;1301;-40
2022/05/23 01:53:28;;;;;;;;;;;21.80;53.50;;;;;;467648;255;2425;-39
2022/05/23 01:55:30;;;;;;;;;;;21.80;53.40;;;;;;465811;255;1172;-39
2022/05/23 01:57:31;;;;;;;;;;;21.90;53.30;;;;;;468033;254;1376;-39
2022/05/23 02:01:51;;;;;;;;;;;21.80;53.50;;;;;;468091;254;1317;-39
2022/05/23 02:03:53;;;;;;;;;;;21.80;53.50;;;;;;465864;255;2224;-39
2022/05/23 02:05:54;;;;;;;;;;;21.80;53.50;;;;;;468125;254;1357;-39
2022/05/23 02:07:56;;;;;;;;;;;21.80;53.60;;;;;;466195;255;1163;-39
2022/05/23 02:09:57;;;;;;;;;;;21.80;53.50;;;;;;467807;254;1865;-39
2022/05/23 02:11:58;;;;;;;;;;;21.80;53.50;;;;;;465867;255;1267;-40
2022/05/23 02:14:00;;;;;;;;;;;21.80;53.50;;;;;;467803;254;1199;-39
2022/05/23 02:16:01;;;;;;;;;;;21.80;53.50;;;;;;465771;255;1297;-40
2022/05/23 02:18:02;;;;;;;;;;;21.80;53.50;;;;;;468011;254;1238;-39
2022/05/23 02:20:04;;;;;;;;;;;21.80;53.50;;;;;;466222;255;1249;-39
2022/05/23 02:22:05;;;;;;;;;;;21.80;53.60;;;;;;468000;254;1269;-40
2022/05/23 02:24:06;;;;;;;;;;;21.80;53.50;;;;;;465800;255;2210;-40
2022/05/23 02:26:08;;;;;;;;;;;21.80;53.50;;;;;;467989;254;1206;-40
2022/05/23 02:28:09;;;;;;;;;;;21.80;53.60;;;;;;466096;255;1289;-40
2022/05/23 02:30:10;;;;;;;;;;;21.80;53.50;;;;;;467627;255;1546;-39
2022/05/23 02:32:12;;;;;;;;;;;21.80;53.50;;;;;;465830;255;1247;-39
2022/05/23 02:34:13;;;;;;;;;;;21.70;53.60;;;;;;468103;254;1517;-39
2022/05/23 02:36:14;;;;;;;;;;;21.80;53.60;;;;;;465850;255;1515;-39
2022/05/23 02:38:16;;;;;;;;;;;21.80;53.70;;;;;;467914;254;1268;-39
2022/05/23 02:40:17;;;;;;;;;;;21.80;53.70;;;;;;465981;255;1205;-40
2022/05/23 02:42:18;;;;;;;;;;;21.80;53.60;;;;;;467536;255;1203;-39
2022/05/23 02:44:20;;;;;;;;;;;21.80;53.50;;;;;;465918;255;2222;-39
2022/05/23 02:46:21;;;;;;;;;;;21.80;53.60;;;;;;467625;255;1205;-39
2022/05/23 02:48:22;;;;;;;;;;;21.70;53.60;;;;;;466095;255;1429;-39
2022/05/23 02:50:23;;;;;;;;;;;21.70;53.60;;;;;;467691;254;1487;-39
2022/05/23 02:52:25;;;;;;;;;;;21.80;53.60;;;;;;465786;255;1222;-40
2022/05/23 02:54:26;;;;;;;;;;;21.70;53.60;;;;;;467906;254;1206;-39
2022/05/23 02:56:27;;;;;;;;;;;21.80;53.60;;;;;;465783;255;1517;-39
2022/05/23 02:58:29;;;;;;;;;;;21.80;53.60;;;;;;467764;254;1212;-40
2022/05/23 03:00:30;;;;;;;;;;;21.80;53.60;;;;;;465815;255;1359;-40
2022/05/23 03:04:51;;;;;;;;;;;21.80;53.50;;;;;;466206;255;2143;-40
2022/05/23 03:06:52;;;;;;;;;;;21.80;53.50;;;;;;468054;254;1248;-40
2022/05/23 03:08:53;;;;;;;;;;;21.80;53.60;;;;;;465854;255;1294;-39
2022/05/23 03:10:55;;;;;;;;;;;21.80;53.60;;;;;;467763;254;1307;-39
2022/05/23 03:12:56;;;;;;;;;;;21.80;53.50;;;;;;465852;255;1240;-39
2022/05/23 03:14:57;;;;;;;;;;;21.80;53.70;;;;;;467803;254;1231;-40
2022/05/23 03:16:58;;;;;;;;;;;21.70;53.70;;;;;;465984;255;1520;-40
2022/05/23 03:19:00;;;;;;;;;;;21.70;53.70;;;;;;467802;254;1378;-40
2022/05/23 03:21:01;;;;;;;;;;;21.70;53.80;;;;;;465932;255;1254;-39
2022/05/23 03:27:42;;;;;;;;;;;21.70;53.70;;;;;;467615;254;1612;-39
2022/05/23 03:29:42;;;;;;;;;;;21.70;53.60;;;;;;465836;256;2177;-39
2022/05/23 03:31:44;;;;;;;;;;;21.70;53.70;;;;;;467935;254;1518;-40
2022/05/23 03:33:45;;;;;;;;;;;21.70;53.80;;;;;;465876;255;1535;-40
2022/05/23 03:35:47;;;;;;;;;;;21.70;53.70;;;;;;467580;255;1277;-40
2022/05/23 03:37:48;;;;;;;;;;;21.70;53.60;;;;;;465779;255;1177;-39
2022/05/23 03:39:49;;;;;;;;;;;21.70;53.70;;;;;;467642;255;1351;-40
2022/05/23 03:41:51;;;;;;;;;;;21.70;53.80;;;;;;465825;255;1445;-39
2022/05/23 03:43:52;;;;;;;;;;;21.70;53.80;;;;;;467553;254;1230;-39
2022/05/23 03:45:53;;;;;;;;;;;21.70;53.70;;;;;;465698;255;2197;-39
2022/05/23 03:47:55;;;;;;;;;;;21.70;53.80;;;;;;467561;255;1288;-39
2022/05/23 03:49:56;;;;;;;;;;;21.70;53.80;;;;;;465769;255;1298;-39
2022/05/23 03:51:58;;;;;;;;;;;21.70;53.80;;;;;;467953;254;1191;-39
2022/05/23 03:53:58;;;;;;;;;;;21.70;53.70;;;;;;465963;255;1341;-39
2022/05/23 03:56:00;;;;;;;;;;;21.70;53.70;;;;;;467929;254;1222;-39
2022/05/23 03:58:02;;;;;;;;;;;21.70;53.60;;;;;;466189;255;1261;-40
2022/05/23 04:00:02;;;;;;;;;;;21.70;53.60;;;;;;467840;254;1216;-40
2022/05/23 04:02:04;;;;;;;;;;;21.70;53.70;;;;;;465742;255;1449;-39
2022/05/23 04:04:05;;;;;;;;;;;21.70;53.70;;;;;;468056;254;1181;-40
2022/05/23 04:06:06;;;;;;;;;;;21.70;53.70;;;;;;465744;255;2206;-39
2022/05/23 04:08:08;;;;;;;;;;;21.60;53.70;;;;;;467973;254;1261;-40
2022/05/23 04:10:09;;;;;;;;;;;21.70;53.80;;;;;;465671;255;1196;-40
2022/05/23 04:12:10;;;;;;;;;;;21.70;53.60;;;;;;468009;254;1230;-39
2022/05/23 04:14:12;;;;;;;;;;;21.70;53.60;;;;;;466001;255;1225;-40
2022/05/23 04:16:13;;;;;;;;;;;21.70;53.60;;;;;;467615;254;1253;-39
2022/05/23 04:18:14;;;;;;;;;;;21.70;53.60;;;;;;466228;255;1195;-39
2022/05/23 04:20:16;;;;;;;;;;;21.70;53.50;;;;;;467591;254;1345;-39
2022/05/23 04:22:17;;;;;;;;;;;21.70;53.60;;;;;;466073;255;1265;-40
2022/05/23 04:24:18;;;;;;;;;;;21.70;53.60;;;;;;468040;254;1048;-39
2022/05/23 04:26:19;;;;;;;;;;;21.70;53.60;;;;;;466199;255;2213;-39
2022/05/23 04:28:21;;;;;;;;;;;21.70;53.60;;;;;;467821;254;1243;-40
2022/05/23 04:30:22;;;;;;;;;;;21.70;53.70;;;;;;466016;255;1151;-39
2022/05/23 04:37:02;;;;;;;;;;;21.70;53.60;;;;;;467576;254;1182;-39
2022/05/23 04:39:04;;;;;;;;;;;21.70;53.60;;;;;;465566;255;1292;-40
2022/05/23 04:41:06;;;;;;;;;;;21.70;53.60;;;;;;467412;255;1202;-39
2022/05/23 04:43:07;;;;;;;;;;;21.70;53.60;;;;;;465618;255;1384;-39
2022/05/23 04:45:08;;;;;;;;;;;21.70;53.70;;;;;;467573;254;2199;-39
2022/05/23 04:49:41;;;;;;;;;;;21.70;53.70;;;;;;467654;254;1189;-39
2022/05/23 04:51:43;;;;;;;;;;;21.70;53.80;;;;;;465522;255;1443;-39
2022/05/23 04:53:44;;;;;;;;;;;21.70;53.80;;;;;;467602;254;1246;-40
2022/05/23 04:55:45;;;;;;;;;;;21.70;53.80;;;;;;465807;255;1308;-39
2022/05/23 04:57:47;;;;;;;;;;;21.70;53.70;;;;;;467894;254;1166;-39
2022/05/23 04:59:48;;;;;;;;;;;21.70;53.80;;;;;;465870;255;1491;-40
2022/05/23 05:01:49;;;;;;;;;;;21.70;53.70;;;;;;467500;254;1308;-40
2022/05/23 05:03:53;;;;;;;;;;;21.70;53.70;;;;;;465669;255;1245;-39
2022/05/23 05:05:52;;;;;;;;;;;21.70;53.70;;;;;;467419;255;2209;-39
2022/05/23 05:07:53;;;;;;;;;;;21.70;53.70;;;;;;465665;255;1158;-40
2022/05/23 05:09:55;;;;;;;;;;;21.70;53.60;;;;;;467602;254;1226;-40
2022/05/23 05:11:56;;;;;;;;;;;21.70;53.70;;;;;;465702;255;1168;-40
2022/05/23 05:13:57;;;;;;;;;;;21.70;53.70;;;;;;467807;254;1183;-40
2022/05/23 05:15:59;;;;;;;;;;;21.70;53.70;;;;;;465529;255;1548;-39
2022/05/23 05:18:00;;;;;;;;;;;21.70;53.60;;;;;;467652;254;1223;-40
2022/05/23 05:20:01;;;;;;;;;;;21.70;53.70;;;;;;465606;255;1281;-40
2022/05/23 05:22:03;;;;;;;;;;;21.70;53.70;;;;;;467550;254;1155;-40
2022/05/23 05:24:04;;;;;;;;;;;21.70;53.70;;;;;;465673;255;1092;-39
2022/05/23 05:26:05;;;;;;;;;;;21.70;53.70;;;;;;467873;254;2125;-39
2022/05/23 05:28:07;;;;;;;;;;;21.70;53.70;;;;;;465794;255;1108;-39
2022/05/23 05:30:08;;;;;;;;;;;21.70;53.60;;;;;;467498;255;1249;-39
2022/05/23 05:32:09;;;;;;;;;;;21.70;53.70;;;;;;465503;255;1540;-40
2022/05/23 05:34:11;;;;;;;;;;;21.70;53.70;;;;;;467796;254;1228;-39
2022/05/23 05:36:13;;;;;;;;;;;21.70;53.70;;;;;;465640;255;1338;-39
2022/05/23 05:38:14;;;;;;;;;;;21.70;53.60;;;;;;467396;254;1231;-39
2022/05/23 05:40:15;;;;;;;;;;;21.70;53.60;;;;;;465580;255;1249;-40
2022/05/23 05:42:18;;;;;;;;;;;21.70;53.80;;;;;;467452;254;1222;-40
2022/05/23 05:44:19;;;;;;;;;;;21.70;53.60;;;;;;465456;256;2070;-39
2022/05/23 05:46:19;;;;;;;;;;;21.70;53.70;;;;;;467329;255;2195;-39
2022/05/23 05:48:21;;;;;;;;;;;21.70;53.70;;;;;;465722;255;1247;-39
2022/05/23 05:50:23;;;;;;;;;;;21.70;53.70;;;;;;467451;254;1218;-39
2022/05/23 05:52:24;;;;;;;;;;;21.60;53.80;;;;;;465674;255;2107;-40
2022/05/23 05:54:26;;;;;;;;;;;21.70;53.70;;;;;;467444;255;1280;-39
2022/05/23 05:56:26;;;;;;;;;;;21.70;53.60;;;;;;465514;255;1988;-40
2022/05/23 05:58:28;;;;;;;;;;;21.70;53.70;;;;;;467553;254;1225;-39
2022/05/23 06:00:29;;;;;;;;;;;21.60;53.80;;;;;;465651;255;1228;-39
2022/05/23 06:02:31;;;;;;;;;;;21.60;53.90;;;;;;467333;254;1163;-40
2022/05/23 06:04:34;;;;;;;;;;;21.70;53.80;;;;;;465438;255;1042;-39
2022/05/23 06:11:26;;;;;;;;;;;21.60;53.70;;;;;;467024;254;1084;-39
2022/05/23 06:13:26;;;;;;;;;;;21.70;53.70;;;;;;465313;255;2374;-39
2022/05/23 06:15:27;;;;;;;;;;;21.70;53.60;;;;;;467223;254;1155;-40
2022/05/23 06:17:29;;;;;;;;;;;21.70;53.70;;;;;;465363;255;1259;-39
2022/05/23 06:19:30;;;;;;;;;;;21.70;53.70;;;;;;467216;254;1176;-39
2022/05/23 06:21:31;;;;;;;;;;;21.70;53.60;;;;;;465337;253;1231;-40
2022/05/23 06:23:33;;;;;;;;;;;21.70;53.70;;;;;;467276;254;1136;-39
2022/05/23 06:25:34;;;;;;;;;;;21.70;53.70;;;;;;465331;255;2323;-40
2022/05/23 06:27:35;;;;;;;;;;;21.70;53.60;;;;;;467519;254;1498;-39
2022/05/23 06:29:36;;;;;;;;;;;21.70;53.60;;;;;;465444;255;1191;-39
2022/05/23 06:31:38;;;;;;;;;;;21.70;53.70;;;;;;467153;254;1501;-39
2022/05/23 06:33:39;;;;;;;;;;;21.60;53.70;;;;;;465380;255;1265;-39
2022/05/23 06:35:40;;;;;;;;;;;21.70;53.80;;;;;;467232;254;1217;-40
2022/05/23 06:37:42;;;;;;;;;;;21.70;53.60;;;;;;465244;255;1237;-39
2022/05/23 06:39:43;;;;;;;;;;;21.70;53.60;;;;;;467118;255;1279;-39
2022/05/23 06:41:44;;;;;;;;;;;21.70;53.60;;;;;;465310;255;1347;-39
2022/05/23 06:43:46;;;;;;;;;;;21.70;53.60;;;;;;467223;254;1242;-40
2022/05/23 06:45:47;;;;;;;;;;;21.70;53.50;;;;;;465286;255;2213;-39
2022/05/23 06:47:49;;;;;;;;;;;21.70;53.70;;;;;;467037;254;1177;-40
2022/05/23 06:49:50;;;;;;;;;;;21.70;53.60;;;;;;465251;255;1150;-40
2022/05/23 06:51:52;;;;;;;;;;;21.70;53.60;;;;;;466915;255;1344;-40
2022/05/23 06:53:54;;;;;;;;;;;21.80;53.50;;;;;;465260;255;1087;-40
2022/05/23 06:55:54;;;;;;;;;;;21.80;53.50;;;;;;467023;254;2692;-40
2022/05/23 06:57:55;;;;;;;;;;;21.80;53.50;;;;;;465362;255;1249;-39
2022/05/23 06:59:56;;;;;;;;;;;21.70;53.50;;;;;;467086;254;1093;-39
2022/05/23 07:01:58;;;;;;;;;;;21.70;53.50;;;;;;465114;255;1227;-39
2022/05/23 07:03:59;;;;;;;;;;;21.70;53.50;;;;;;466978;255;1105;-40
2022/05/23 07:12:58;;;;;;;;;;;21.80;53.50;;;;;;466816;254;1169;-40
2022/05/23 07:14:59;;;;;;;;;;;21.80;53.50;;;;;;464949;255;1264;-40
2022/05/23 07:17:00;;;;;;;;;;;21.80;53.50;;;;;;466757;254;1398;-39
2022/05/23 07:19:02;;;;;;;;;;;21.80;53.40;;;;;;465056;255;1404;-40
2022/05/23 07:21:06;;;;;;;;;;;21.80;53.50;;;;;;467512;254;1148;-40
2022/05/23 07:23:05;;;;;;;;;;;21.80;53.40;;;;;;464943;256;2158;-40
2022/05/23 07:25:06;;;;;;;;;;;21.80;53.40;;;;;;467108;254;1220;-40
2022/05/23 07:27:08;;;;;;;;;;;21.80;53.40;;;;;;465172;255;2209;-39
2022/05/23 07:29:09;;;;;;;;;;;21.80;53.40;;;;;;467103;255;1072;-40
2022/05/23 07:31:11;;;;;;;;;;;21.80;53.40;;;;;;464989;255;1197;-39
2022/05/23 07:33:12;;;;;;;;;;;21.80;53.50;;;;;;467055;254;1497;-39
2022/05/23 07:35:13;;;;;;;;;;;21.80;53.50;;;;;;465197;255;1157;-40
2022/05/23 07:37:16;;;;;;;;;;;21.80;53.50;;;;;;466862;254;1757;-39
2022/05/23 07:39:16;;;;;;;;;;;21.80;53.50;;;;;;465605;255;1763;-39
2022/05/23 07:41:18;;;;;;;;;;;21.80;53.50;;;;;;467003;254;1245;-40
2022/05/23 07:43:19;;;;;;;;;;;21.80;53.50;;;;;;465037;255;1344;-40
2022/05/23 07:45:20;;;;;;;;;;;21.70;53.50;;;;;;467051;254;1178;-40
2022/05/23 07:47:22;;;;;;;;;;;21.80;53.60;;;;;;464803;255;2209;-40
2022/05/23 07:49:23;;;;;;;;;;;21.80;53.50;;;;;;466827;255;1107;-39
2022/05/23 07:51:24;;;;;;;;;;;21.80;53.50;;;;;;464857;255;1170;-39
2022/05/23 08:00:32;;;;;;;;;;;21.80;53.40;;;;;;464939;255;1251;-39
2022/05/23 08:02:34;;;;;;;;;;;21.70;53.50;;;;;;466918;254;1315;-40
2022/05/23 08:04:35;;;;;;;;;;;21.80;53.50;;;;;;465114;255;1233;-39
2022/05/23 08:06:36;;;;;;;;;;;21.80;53.60;;;;;;466878;254;2208;-39
2022/05/23 08:08:37;;;;;;;;;;;21.70;53.60;;;;;;465339;255;1098;-39
2022/05/23 08:10:39;;;;;;;;;;;21.80;53.50;;;;;;467176;254;1274;-39
2022/05/23 08:12:41;;;;;;;;;;;21.80;53.50;;;;;;465168;255;1146;-40
2022/05/23 08:14:41;;;;;;;;;;;21.90;53.50;;;;;;467272;254;1162;-40
2022/05/23 08:16:43;;;;;;;;;;;21.80;53.40;;;;;;464992;255;1243;-39
2022/05/23 08:18:44;;;;;;;;;;;21.80;53.50;;;;;;467050;254;1249;-40
2022/05/23 08:20:45;;;;;;;;;;;21.80;53.60;;;;;;464809;255;1250;-40
2022/05/23 08:22:51;;;;;;;;;;;21.80;53.60;;;;;;466852;254;1626;-40
2022/05/23 08:24:48;;;;;;;;;;;21.80;53.70;;;;;;464614;256;2061;-39
2022/05/23 08:26:49;;;;;;;;;;;21.80;53.60;;;;;;465878;255;2279;-40
2022/05/23 08:28:51;;;;;;;;;;;21.80;53.60;;;;;;464822;255;1195;-39
2022/05/23 08:30:53;;;;;;;;;;;21.80;53.60;;;;;;466697;254;1268;-40
2022/05/23 08:32:53;;;;;;;;;;;21.80;53.60;;;;;;465111;256;2323;-40
2022/05/23 08:34:55;;;;;;;;;;;21.80;53.60;;;;;;466966;255;1290;-39
2022/05/23 08:36:56;;;;;;;;;;;21.80;53.70;;;;;;465552;255;1396;-40
2022/05/23 08:38:57;;;;;;;;;;;21.80;53.70;;;;;;466982;255;1281;-39
2022/05/23 08:40:59;;;;;;;;;;;21.80;53.60;;;;;;465637;255;1125;-40
2022/05/23 08:43:00;;;;;;;;;;;21.80;53.70;;;;;;467113;255;1112;-40
2022/05/23 08:45:01;;;;;;;;;;;21.80;53.70;;;;;;465241;255;1080;-39
2022/05/23 08:47:03;;;;;;;;;;;21.80;53.70;;;;;;467034;255;2208;-39
2022/05/23 08:49:04;;;;;;;;;;;21.80;53.70;;;;;;465501;255;1146;-40
2022/05/23 08:51:07;;;;;;;;;;;21.80;53.70;;;;;;467045;255;1143;-39
2022/05/23 08:53:07;;;;;;;;;;;21.80;53.80;;;;;;464988;255;2226;-39
2022/05/23 08:55:08;;;;;;;;;;;21.80;53.80;;;;;;466723;255;1317;-40
2022/05/23 08:57:10;;;;;;;;;;;21.80;53.80;;;;;;465209;255;1329;-40
2022/05/23 08:59:11;;;;;;;;;;;21.80;53.80;;;;;;466993;254;1133;-39
2022/05/23 09:01:12;;;;;;;;;;;21.80;53.70;;;;;;465059;255;1268;-40
2022/05/23 09:03:14;;;;;;;;;;;21.80;53.70;;;;;;466876;254;1244;-39
2022/05/23 09:05:15;;;;;;;;;;;21.80;53.80;;;;;;464986;255;1331;-40
2022/05/23 09:07:17;;;;;;;;;;;21.80;53.70;;;;;;467562;254;2200;-39
2022/05/23 09:09:18;;;;;;;;;;;21.80;53.70;;;;;;465724;255;1072;-39
2022/05/23 09:11:19;;;;;;;;;;;21.80;53.90;;;;;;466850;255;1675;-40
2022/05/23 09:13:21;;;;;;;;;;;21.80;53.80;;;;;;464744;255;1138;-39
2022/05/23 09:15:22;;;;;;;;;;;21.80;53.80;;;;;;466707;254;1322;-39
2022/05/23 09:17:23;;;;;;;;;;;21.80;53.90;;;;;;465190;255;1256;-39
2022/05/23 09:19:25;;;;;;;;;;;21.80;53.90;;;;;;467107;254;1240;-40
2022/05/23 09:22:12;;;;;;;;;;;21.70;53.90;;;;;;464945;255;1344;-40
2022/05/23 09:23:28;;;;;;;;;;;21.80;53.90;;;;;;464947;255;1807;-39
2022/05/23 09:25:30;;;;;;;;;;;21.80;53.90;;;;;;464847;255;1235;-40
2022/05/23 09:27:30;;;;;;;;;;;21.80;53.80;;;;;;466612;255;2216;-40
2022/05/23 09:29:32;;;;;;;;;;;21.80;53.80;;;;;;464942;255;1297;-39
2022/05/23 09:31:33;;;;;;;;;;;21.80;53.90;;;;;;466716;254;1252;-40
2022/05/23 09:33:35;;;;;;;;;;;21.80;54.00;;;;;;465371;255;1353;-40
2022/05/23 09:35:36;;;;;;;;;;;21.80;54.00;;;;;;467469;254;1183;-40
2022/05/23 09:37:37;;;;;;;;;;;21.80;54.00;;;;;;465295;256;1553;-40
2022/05/23 09:39:38;;;;;;;;;;;21.80;54.00;;;;;;467661;254;1158;-39
2022/05/23 09:48:37;;;;;;;;;;;21.80;53.90;;;;;;467117;254;1576;-39
2022/05/23 09:50:38;;;;;;;;;;;21.80;53.90;;;;;;465147;255;1513;-39
2022/05/23 09:52:42;;;;;;;;;;;21.70;54.10;;;;;;466841;254;1287;-39
2022/05/23 09:54:41;;;;;;;;;;;21.80;54.00;;;;;;465092;256;1869;-39
2022/05/23 09:56:42;;;;;;;;;;;21.80;54.00;;;;;;466883;254;1278;-39
2022/05/23 09:58:44;;;;;;;;;;;21.80;53.90;;;;;;465506;255;1137;-39
2022/05/23 10:00:45;;;;;;;;;;;21.80;54.10;;;;;;467490;254;1065;-39
2022/05/23 10:02:46;;;;;;;;;;;21.70;54.20;;;;;;465315;255;1103;-39
2022/05/23 10:04:49;;;;;;;;;;;21.80;54.10;;;;;;467153;255;1957;-40
2022/05/23 10:06:50;;;;;;;;;;;21.70;54.10;;;;;;465125;255;2221;-39
2022/05/23 10:08:50;;;;;;;;;;;21.80;54.10;;;;;;467075;254;2314;-39
2022/05/23 10:10:51;;;;;;;;;;;21.80;54.00;;;;;;465124;255;1192;-40
2022/05/23 10:12:53;;;;;;;;;;;21.80;54.00;;;;;;466986;254;1283;-40
2022/05/23 10:14:54;;;;;;;;;;;21.80;54.10;;;;;;465196;255;1342;-40
2022/05/23 10:16:56;;;;;;;;;;;21.70;54.10;;;;;;466847;255;1164;-40
2022/05/23 10:18:59;;;;;;;;;;;21.70;54.10;;;;;;464958;255;1353;-39
2022/05/23 10:20:59;;;;;;;;;;;21.80;54.10;;;;;;466560;255;1992;-39
2022/05/23 10:23:00;;;;;;;;;;;21.80;54.00;;;;;;465050;255;1159;-39
2022/05/23 10:25:01;;;;;;;;;;;21.70;54.00;;;;;;466823;254;1245;-40
2022/05/23 10:27:03;;;;;;;;;;;21.80;54.00;;;;;;464910;255;2201;-39
2022/05/23 10:29:04;;;;;;;;;;;21.70;54.00;;;;;;466897;254;1299;-39
2022/05/23 10:31:05;;;;;;;;;;;21.80;54.00;;;;;;465049;255;1245;-39
2022/05/23 10:33:07;;;;;;;;;;;21.80;54.00;;;;;;466910;255;1320;-39
2022/05/23 10:35:08;;;;;;;;;;;21.70;54.00;;;;;;465083;255;1272;-40
2022/05/23 10:37:09;;;;;;;;;;;21.70;54.10;;;;;;466910;255;1168;-39
2022/05/23 10:43:50;;;;;;;;;;;21.70;54.10;;;;;;464892;255;1236;-39
2022/05/23 10:45:51;;;;;;;;;;;21.80;54.10;;;;;;466680;254;1231;-39
2022/05/23 10:47:52;;;;;;;;;;;21.70;54.10;;;;;;465025;255;2150;-40
2022/05/23 10:49:54;;;;;;;;;;;21.70;54.10;;;;;;466910;254;1268;-39
2022/05/23 10:51:55;;;;;;;;;;;21.80;54.10;;;;;;465050;255;1396;-39
2022/05/23 10:53:56;;;;;;;;;;;21.80;54.00;;;;;;466939;254;1279;-39
2022/05/23 10:55:58;;;;;;;;;;;21.80;54.00;;;;;;465092;255;1374;-39
2022/05/23 10:57:59;;;;;;;;;;;21.80;54.10;;;;;;466604;255;1407;-40
2022/05/23 11:00:02;;;;;;;;;;;21.80;54.00;;;;;;464828;255;1253;-39
2022/05/23 11:02:02;;;;;;;;;;;21.80;53.90;;;;;;466577;255;1833;-40
2022/05/23 11:04:03;;;;;;;;;;;21.80;53.90;;;;;;465072;255;1255;-39
2022/05/23 11:06:04;;;;;;;;;;;21.80;53.90;;;;;;466919;254;1185;-39
2022/05/23 11:08:06;;;;;;;;;;;21.80;53.90;;;;;;464897;255;2197;-40
2022/05/23 11:10:07;;;;;;;;;;;21.80;54.00;;;;;;466739;255;1994;-40
2022/05/23 11:12:08;;;;;;;;;;;21.70;54.00;;;;;;464864;255;1178;-39
2022/05/23 11:14:10;;;;;;;;;;;21.70;53.90;;;;;;466660;255;1164;-39
2022/05/23 11:16:11;;;;;;;;;;;21.80;54.10;;;;;;464675;255;1303;-39
2022/05/23 11:18:12;;;;;;;;;;;21.80;54.10;;;;;;466896;255;1311;-40
2022/05/23 11:20:14;;;;;;;;;;;21.80;54.00;;;;;;464900;255;1298;-39
2022/05/23 11:22:15;;;;;;;;;;;21.80;54.00;;;;;;466895;254;1248;-39
2022/05/23 11:24:16;;;;;;;;;;;21.80;54.00;;;;;;464951;255;1221;-39
2022/05/23 11:26:17;;;;;;;;;;;21.80;53.90;;;;;;466756;255;1257;-39
2022/05/23 11:35:33;;;;;;;;;;;21.80;53.80;;;;;;450034;263;1653;-39
2022/05/23 11:37:48;;;;;;;;;;;21.80;54.00;;;;;;458602;255;1985;-39
2022/05/23 11:39:47;;;;;;;;;;;21.70;53.90;;;;;;464768;255;2206;-40
2022/05/23 11:41:48;;;;;;;;;;;21.70;54.00;;;;;;466663;255;1365;-39
2022/05/23 11:43:49;;;;;;;;;;;21.80;54.00;;;;;;464932;255;1194;-39
2022/05/23 11:46:02;;;;;;;;;;;21.80;53.90;;;;;;466703;254;1171;-40
2022/05/23 11:48:01;;;;;;;;;;;21.80;54.00;;;;;;464830;256;2201;-39
2022/05/23 11:50:03;;;;;;;;;;;21.70;54.00;;;;;;466794;255;1181;-40
2022/05/23 11:52:04;;;;;;;;;;;21.70;54.10;;;;;;464882;255;1233;-40
2022/05/23 11:54:07;;;;;;;;;;;21.70;54.00;;;;;;466198;255;1122;-40
2022/05/23 11:56:07;;;;;;;;;;;21.70;54.00;;;;;;464314;256;1846;-40
2022/05/23 11:58:08;;;;;;;;;;;21.70;54.00;;;;;;466882;254;1067;-40
2022/05/23 12:00:09;;;;;;;;;;;21.80;53.90;;;;;;465046;255;1160;-39
2022/05/23 12:02:11;;;;;;;;;;;21.70;54.00;;;;;;466912;254;1124;-39
2022/05/23 12:04:12;;;;;;;;;;;21.80;53.90;;;;;;465221;255;1318;-40
2022/05/23 12:06:13;;;;;;;;;;;21.80;53.90;;;;;;466924;254;1083;-39
2022/05/23 12:08:15;;;;;;;;;;;21.80;53.90;;;;;;465367;255;2229;-39
2022/05/23 12:10:16;;;;;;;;;;;21.70;53.90;;;;;;466687;254;1038;-39
2022/05/23 12:12:17;;;;;;;;;;;21.80;54.00;;;;;;464596;255;1267;-40
2022/05/23 12:14:19;;;;;;;;;;;21.80;54.00;;;;;;466640;255;1100;-39
2022/05/23 12:16:22;;;;;;;;;;;21.70;54.00;;;;;;464507;255;1007;-40
2022/05/23 12:18:22;;;;;;;;;;;21.80;54.00;;;;;;466580;255;2219;-39
2022/05/23 12:20:23;;;;;;;;;;;21.70;54.00;;;;;;465279;255;1134;-40
2022/05/23 12:22:24;;;;;;;;;;;21.70;53.90;;;;;;466687;254;1131;-40
2022/05/23 12:24:26;;;;;;;;;;;21.70;54.10;;;;;;464907;255;1169;-40
2022/05/23 12:26:27;;;;;;;;;;;21.70;54.00;;;;;;467213;254;1028;-39
2022/05/23 12:28:28;;;;;;;;;;;21.80;54.10;;;;;;465175;255;2486;-40
2022/05/23 12:30:31;;;;;;;;;;;21.80;54.00;;;;;;466375;255;1106;-39
2022/05/23 12:32:31;;;;;;;;;;;21.70;54.00;;;;;;464753;256;2069;-40
2022/05/23 12:34:32;;;;;;;;;;;21.70;54.10;;;;;;467143;254;1051;-39
2022/05/23 12:36:34;;;;;;;;;;;21.70;54.10;;;;;;464818;255;1125;-39
2022/05/23 12:38:35;;;;;;;;;;;21.70;54.10;;;;;;466938;254;1325;-40
2022/05/23 12:40:36;;;;;;;;;;;21.80;54.00;;;;;;465501;255;1114;-40
2022/05/23 12:42:38;;;;;;;;;;;21.80;54.00;;;;;;467256;254;1117;-39
2022/05/23 12:44:39;;;;;;;;;;;21.70;54.00;;;;;;465227;255;1089;-39
2022/05/23 12:46:40;;;;;;;;;;;21.70;54.10;;;;;;467467;254;1141;-39
2022/05/23 12:48:42;;;;;;;;;;;21.70;54.10;;;;;;465712;255;2202;-40
2022/05/23 12:50:43;;;;;;;;;;;21.70;54.20;;;;;;466876;254;1179;-40
2022/05/23 12:52:44;;;;;;;;;;;21.70;54.20;;;;;;464991;255;1064;-39
2022/05/23 12:54:46;;;;;;;;;;;21.80;54.10;;;;;;467035;255;1123;-39
2022/05/23 12:56:47;;;;;;;;;;;21.70;54.10;;;;;;464930;255;1282;-40